sensor_id;sensor_type;location;lat;lon;timestamp;temperature;humidity
17252;DHT22;8742;51.716;8.790;2023-04-01T00:00:51;10.30;99.90
17252;DHT22;8742;51.716;8.790;2023-04-01T00:03:19;10.30;99.90
17252;DHT22;8742;51.716;8.790;2023-04-01T00:05:46;10.40;99.90
17252;DHT22;8742;51.716;8.790;2023-04-01T00:08:13;10.40;99.90
17252;DHT22;8742;51.716;8.790;2023-04-01T00:10:40;10.40;99.90
17252;DHT22;8742;51.716;8.790;2023-04-01T00:13:07;10.40;99.90
17252;DHT22;8742;51.716;8.790;2023-04-01T00:15:35;10.40;99.90
17252;DHT22;8742;51.716;8.790;2023-04-01T00:18:03;10.40;99.90
17252;DHT22;8742;51.716;8.790;2023-04-01T00:20:30;10.40;99.90
17252;DHT22;8742;51.716;8.790;2023-04-01T00:22:57;10.40;99.90
17252;DHT22;8742;51.716;8.790;2023-04-01T00:25:24;10.40;99.90
17252;DHT22;8742;51.716;8.790;2023-04-01T00:27:51;10.40;99.90
17252;DHT22;8742;51.716;8.790;2023-04-01T00:30:18;10.40;99.90
17252;DHT22;8742;51.716;8.790;2023-04-01T00:32:44;10.30;99.90
17252;DHT22;8742;51.716;8.790;2023-04-01T00:35:13;10.30;99.90
17252;DHT22;8742;51.716;8.790;2023-04-01T00:37:40;10.40;99.90
17252;DHT22;8742;51.716;8.790;2023-04-01T00:40:11;10.40;99.90
17252;DHT22;8742;51.716;8.790;2023-04-01T00:42:47;10.40;99.90
17252;DHT22;8742;51.716;8.790;2023-04-01T00:45:35;10.40;99.90
17252;DHT22;8742;51.716;8.790;2023-04-01T00:48:07;10.40;99.90
17252;DHT22;8742;51.716;8.790;2023-04-01T00:50:38;10.40;99.90
17252;DHT22;8742;51.716;8.790;2023-04-01T00:53:06;10.40;99.90
17252;DHT22;8742;51.716;8.790;2023-04-01T00:55:35;10.40;99.90
17252;DHT22;8742;51.716;8.790;2023-04-01T00:58:05;10.30;99.90
17252;DHT22;8742;51.716;8.790;2023-04-01T01:00:34;10.30;99.90
17252;DHT22;8742;51.716;8.790;2023-04-01T01:03:02;10.40;99.90
17252;DHT22;8742;51.716;8.790;2023-04-01T01:05:38;10.40;99.90
17252;DHT22;8742;51.716;8.790;2023-04-01T01:08:15;10.30;99.90
17252;DHT22;8742;51.716;8.790;2023-04-01T01:10:49;10.30;99.90
17252;DHT22;8742;51.716;8.790;2023-04-01T01:13:20;10.30;99.90
17252;DHT22;8742;51.716;8.790;2023-04-01T01:15:50;10.40;99.90
17252;DHT22;8742;51.716;8.790;2023-04-01T01:18:24;10.40;99.90
17252;DHT22;8742;51.716;8.790;2023-04-01T01:21:11;10.40;99.90
17252;DHT22;8742;51.716;8.790;2023-04-01T01:26:58;10.50;99.90
17252;DHT22;8742;51.716;8.790;2023-04-01T01:32:31;10.40;99.90
17252;DHT22;8742;51.716;8.790;2023-04-01T01:35:16;10.40;99.90
17252;DHT22;8742;51.716;8.790;2023-04-01T01:37:46;10.40;99.90
17252;DHT22;8742;51.716;8.790;2023-04-01T01:40:16;10.30;99.90
17252;DHT22;8742;51.716;8.790;2023-04-01T01:42:46;10.30;99.90
17252;DHT22;8742;51.716;8.790;2023-04-01T01:45:16;10.20;99.90
17252;DHT22;8742;51.716;8.790;2023-04-01T01:47:45;10.10;99.90
17252;DHT22;8742;51.716;8.790;2023-04-01T01:50:14;10.00;99.90
17252;DHT22;8742;51.716;8.790;2023-04-01T01:52:42;10.00;99.90
17252;DHT22;8742;51.716;8.790;2023-04-01T01:55:26;10.00;99.90
17252;DHT22;8742;51.716;8.790;2023-04-01T01:57:56;9.90;99.90
17252;DHT22;8742;51.716;8.790;2023-04-01T02:00:24;9.90;99.90
17252;DHT22;8742;51.716;8.790;2023-04-01T02:02:53;9.80;99.90
17252;DHT22;8742;51.716;8.790;2023-04-01T02:05:23;9.80;99.90
17252;DHT22;8742;51.716;8.790;2023-04-01T02:07:55;9.70;99.90
17252;DHT22;8742;51.716;8.790;2023-04-01T02:10:25;9.70;99.90
17252;DHT22;8742;51.716;8.790;2023-04-01T02:12:56;9.70;99.90
17252;DHT22;8742;51.716;8.790;2023-04-01T02:15:25;9.70;99.90
17252;DHT22;8742;51.716;8.790;2023-04-01T02:17:56;9.70;99.90
17252;DHT22;8742;51.716;8.790;2023-04-01T02:20:25;9.70;99.90
17252;DHT22;8742;51.716;8.790;2023-04-01T02:22:54;9.70;99.90
17252;DHT22;8742;51.716;8.790;2023-04-01T02:25:25;9.70;99.90
17252;DHT22;8742;51.716;8.790;2023-04-01T02:27:55;9.70;99.90
17252;DHT22;8742;51.716;8.790;2023-04-01T02:30:23;9.70;99.90
17252;DHT22;8742;51.716;8.790;2023-04-01T02:32:51;9.80;99.90
17252;DHT22;8742;51.716;8.790;2023-04-01T02:35:18;9.80;99.90
17252;DHT22;8742;51.716;8.790;2023-04-01T02:37:48;9.80;99.90
17252;DHT22;8742;51.716;8.790;2023-04-01T02:40:17;9.80;99.90
17252;DHT22;8742;51.716;8.790;2023-04-01T02:42:44;9.80;99.90
17252;DHT22;8742;51.716;8.790;2023-04-01T02:45:12;9.80;99.90
17252;DHT22;8742;51.716;8.790;2023-04-01T02:47:39;9.80;99.90
17252;DHT22;8742;51.716;8.790;2023-04-01T02:50:07;9.80;99.90
17252;DHT22;8742;51.716;8.790;2023-04-01T02:52:34;9.90;99.90
17252;DHT22;8742;51.716;8.790;2023-04-01T02:55:03;9.90;99.90
17252;DHT22;8742;51.716;8.790;2023-04-01T02:57:30;9.90;99.90
17252;DHT22;8742;51.716;8.790;2023-04-01T02:59:57;9.90;99.90
17252;DHT22;8742;51.716;8.790;2023-04-01T03:02:24;9.90;99.90
17252;DHT22;8742;51.716;8.790;2023-04-01T03:04:51;9.90;99.90
17252;DHT22;8742;51.716;8.790;2023-04-01T03:07:17;9.90;99.90
17252;DHT22;8742;51.716;8.790;2023-04-01T03:09:44;9.90;99.90
17252;DHT22;8742;51.716;8.790;2023-04-01T03:12:13;9.90;99.90
17252;DHT22;8742;51.716;8.790;2023-04-01T03:14:39;9.90;99.90
17252;DHT22;8742;51.716;8.790;2023-04-01T03:17:06;9.90;99.90
17252;DHT22;8742;51.716;8.790;2023-04-01T03:19:33;9.90;99.90
17252;DHT22;8742;51.716;8.790;2023-04-01T03:22:00;9.90;99.90
17252;DHT22;8742;51.716;8.790;2023-04-01T03:24:27;9.80;99.90
17252;DHT22;8742;51.716;8.790;2023-04-01T03:26:53;9.80;99.90
17252;DHT22;8742;51.716;8.790;2023-04-01T03:29:21;9.90;99.90
17252;DHT22;8742;51.716;8.790;2023-04-01T03:31:48;9.80;99.90
17252;DHT22;8742;51.716;8.790;2023-04-01T03:34:15;9.80;99.90
17252;DHT22;8742;51.716;8.790;2023-04-01T03:36:42;9.80;99.90
17252;DHT22;8742;51.716;8.790;2023-04-01T03:39:09;9.80;99.90
17252;DHT22;8742;51.716;8.790;2023-04-01T03:41:36;9.80;99.90
17252;DHT22;8742;51.716;8.790;2023-04-01T03:44:04;9.80;99.90
17252;DHT22;8742;51.716;8.790;2023-04-01T03:46:32;9.70;99.90
17252;DHT22;8742;51.716;8.790;2023-04-01T03:48:59;9.70;99.90
17252;DHT22;8742;51.716;8.790;2023-04-01T03:51:25;9.70;99.90
17252;DHT22;8742;51.716;8.790;2023-04-01T03:53:52;9.70;99.90
17252;DHT22;8742;51.716;8.790;2023-04-01T03:56:19;9.70;99.90
17252;DHT22;8742;51.716;8.790;2023-04-01T03:58:46;9.70;99.90
17252;DHT22;8742;51.716;8.790;2023-04-01T04:01:14;9.60;99.90
17252;DHT22;8742;51.716;8.790;2023-04-01T04:03:42;9.60;99.90
17252;DHT22;8742;51.716;8.790;2023-04-01T04:06:12;9.60;99.90
17252;DHT22;8742;51.716;8.790;2023-04-01T04:08:38;9.60;99.90
17252;DHT22;8742;51.716;8.790;2023-04-01T04:11:05;9.60;99.90
17252;DHT22;8742;51.716;8.790;2023-04-01T04:13:32;9.60;99.90
17252;DHT22;8742;51.716;8.790;2023-04-01T04:15:59;9.50;99.90
17252;DHT22;8742;51.716;8.790;2023-04-01T04:18:26;9.50;99.90
17252;DHT22;8742;51.716;8.790;2023-04-01T04:20:54;9.50;99.90
17252;DHT22;8742;51.716;8.790;2023-04-01T04:23:21;9.50;99.90
17252;DHT22;8742;51.716;8.790;2023-04-01T04:25:56;9.50;99.90
17252;DHT22;8742;51.716;8.790;2023-04-01T04:28:23;9.50;99.90
17252;DHT22;8742;51.716;8.790;2023-04-01T04:30:50;9.50;99.90
17252;DHT22;8742;51.716;8.790;2023-04-01T04:33:17;9.50;99.90
17252;DHT22;8742;51.716;8.790;2023-04-01T04:35:44;9.40;99.90
17252;DHT22;8742;51.716;8.790;2023-04-01T04:38:13;9.40;99.90
17252;DHT22;8742;51.716;8.790;2023-04-01T04:40:40;9.40;99.90
17252;DHT22;8742;51.716;8.790;2023-04-01T04:43:10;9.40;99.90
17252;DHT22;8742;51.716;8.790;2023-04-01T04:45:37;9.50;99.90
17252;DHT22;8742;51.716;8.790;2023-04-01T04:48:04;9.40;99.90
17252;DHT22;8742;51.716;8.790;2023-04-01T04:50:31;9.40;99.90
17252;DHT22;8742;51.716;8.790;2023-04-01T04:52:58;9.30;99.90
17252;DHT22;8742;51.716;8.790;2023-04-01T04:55:26;9.30;99.90
17252;DHT22;8742;51.716;8.790;2023-04-01T04:57:53;9.30;99.90
17252;DHT22;8742;51.716;8.790;2023-04-01T05:00:20;9.30;99.90
17252;DHT22;8742;51.716;8.790;2023-04-01T05:02:47;9.20;99.90
17252;DHT22;8742;51.716;8.790;2023-04-01T05:05:14;9.20;99.90
17252;DHT22;8742;51.716;8.790;2023-04-01T05:07:41;9.20;99.90
17252;DHT22;8742;51.716;8.790;2023-04-01T05:10:08;9.20;99.90
17252;DHT22;8742;51.716;8.790;2023-04-01T05:12:36;9.20;99.90
17252;DHT22;8742;51.716;8.790;2023-04-01T05:15:06;9.20;99.90
17252;DHT22;8742;51.716;8.790;2023-04-01T05:17:33;9.20;99.90
17252;DHT22;8742;51.716;8.790;2023-04-01T05:20:01;9.20;99.90
17252;DHT22;8742;51.716;8.790;2023-04-01T05:22:28;9.20;99.90
17252;DHT22;8742;51.716;8.790;2023-04-01T05:24:55;9.20;99.90
17252;DHT22;8742;51.716;8.790;2023-04-01T05:27:22;9.20;99.90
17252;DHT22;8742;51.716;8.790;2023-04-01T05:29:50;9.30;99.90
17252;DHT22;8742;51.716;8.790;2023-04-01T05:32:17;9.20;99.90
17252;DHT22;8742;51.716;8.790;2023-04-01T05:34:43;9.20;99.90
17252;DHT22;8742;51.716;8.790;2023-04-01T05:37:10;9.20;99.90
17252;DHT22;8742;51.716;8.790;2023-04-01T05:39:37;9.20;99.90
17252;DHT22;8742;51.716;8.790;2023-04-01T05:42:06;9.20;99.90
17252;DHT22;8742;51.716;8.790;2023-04-01T05:44:33;9.20;99.90
17252;DHT22;8742;51.716;8.790;2023-04-01T05:47:02;9.20;99.90
17252;DHT22;8742;51.716;8.790;2023-04-01T05:49:29;9.20;99.90
17252;DHT22;8742;51.716;8.790;2023-04-01T05:51:56;9.30;99.90
17252;DHT22;8742;51.716;8.790;2023-04-01T05:54:23;9.30;99.90
17252;DHT22;8742;51.716;8.790;2023-04-01T05:56:50;9.40;99.90
17252;DHT22;8742;51.716;8.790;2023-04-01T05:59:17;9.40;99.90
17252;DHT22;8742;51.716;8.790;2023-04-01T06:01:44;9.40;99.90
17252;DHT22;8742;51.716;8.790;2023-04-01T06:04:15;9.50;99.90
17252;DHT22;8742;51.716;8.790;2023-04-01T06:06:43;9.50;99.90
17252;DHT22;8742;51.716;8.790;2023-04-01T06:09:13;9.50;99.90
17252;DHT22;8742;51.716;8.790;2023-04-01T06:11:51;9.60;99.90
17252;DHT22;8742;51.716;8.790;2023-04-01T06:14:30;9.60;99.90
17252;DHT22;8742;51.716;8.790;2023-04-01T06:17:15;9.60;99.90
17252;DHT22;8742;51.716;8.790;2023-04-01T06:19:53;9.60;99.90
17252;DHT22;8742;51.716;8.790;2023-04-01T06:22:35;9.50;99.90
17252;DHT22;8742;51.716;8.790;2023-04-01T06:25:24;9.50;99.90
17252;DHT22;8742;51.716;8.790;2023-04-01T06:28:05;9.50;99.90
17252;DHT22;8742;51.716;8.790;2023-04-01T06:30:41;9.50;99.90
17252;DHT22;8742;51.716;8.790;2023-04-01T06:33:21;9.50;99.90
17252;DHT22;8742;51.716;8.790;2023-04-01T06:36:13;9.50;99.90
17252;DHT22;8742;51.716;8.790;2023-04-01T06:39:08;9.50;99.90
17252;DHT22;8742;51.716;8.790;2023-04-01T06:42:11;9.50;99.90
17252;DHT22;8742;51.716;8.790;2023-04-01T06:44:49;9.60;99.90
17252;DHT22;8742;51.716;8.790;2023-04-01T06:47:34;9.60;99.90
17252;DHT22;8742;51.716;8.790;2023-04-01T06:50:09;9.50;99.90
17252;DHT22;8742;51.716;8.790;2023-04-01T06:52:45;9.50;99.90
17252;DHT22;8742;51.716;8.790;2023-04-01T06:55:24;9.50;99.90
17252;DHT22;8742;51.716;8.790;2023-04-01T06:57:55;9.50;99.90
17252;DHT22;8742;51.716;8.790;2023-04-01T07:00:27;9.50;99.90
17252;DHT22;8742;51.716;8.790;2023-04-01T07:03:02;9.60;99.90
17252;DHT22;8742;51.716;8.790;2023-04-01T07:05:32;9.60;99.90
17252;DHT22;8742;51.716;8.790;2023-04-01T07:08:03;9.60;99.90
17252;DHT22;8742;51.716;8.790;2023-04-01T07:10:35;9.60;99.90
17252;DHT22;8742;51.716;8.790;2023-04-01T07:13:13;9.70;99.90
17252;DHT22;8742;51.716;8.790;2023-04-01T07:15:43;9.80;99.90
17252;DHT22;8742;51.716;8.790;2023-04-01T07:18:15;9.90;99.90
17252;DHT22;8742;51.716;8.790;2023-04-01T07:20:43;9.90;99.90
17252;DHT22;8742;51.716;8.790;2023-04-01T07:23:19;10.00;99.90
17252;DHT22;8742;51.716;8.790;2023-04-01T07:25:51;10.10;99.90
17252;DHT22;8742;51.716;8.790;2023-04-01T07:28:19;10.20;99.90
17252;DHT22;8742;51.716;8.790;2023-04-01T07:30:57;10.30;99.90
17252;DHT22;8742;51.716;8.790;2023-04-01T07:33:35;10.20;99.90
17252;DHT22;8742;51.716;8.790;2023-04-01T07:36:11;10.20;99.90
17252;DHT22;8742;51.716;8.790;2023-04-01T07:38:50;10.20;99.90
17252;DHT22;8742;51.716;8.790;2023-04-01T07:41:29;10.30;99.90
17252;DHT22;8742;51.716;8.790;2023-04-01T07:44:06;10.20;99.90
17252;DHT22;8742;51.716;8.790;2023-04-01T07:46:53;10.20;99.90
17252;DHT22;8742;51.716;8.790;2023-04-01T07:49:26;10.30;99.90
17252;DHT22;8742;51.716;8.790;2023-04-01T07:52:00;10.30;99.90
17252;DHT22;8742;51.716;8.790;2023-04-01T07:54:35;10.40;99.90
17252;DHT22;8742;51.716;8.790;2023-04-01T07:57:08;10.50;99.90
17252;DHT22;8742;51.716;8.790;2023-04-01T07:59:42;10.60;99.90
17252;DHT22;8742;51.716;8.790;2023-04-01T08:02:23;10.60;99.90
17252;DHT22;8742;51.716;8.790;2023-04-01T08:04:59;10.70;99.90
17252;DHT22;8742;51.716;8.790;2023-04-01T08:07:33;10.70;99.90
17252;DHT22;8742;51.716;8.790;2023-04-01T08:10:11;10.70;99.90
17252;DHT22;8742;51.716;8.790;2023-04-01T08:12:49;10.80;99.90
17252;DHT22;8742;51.716;8.790;2023-04-01T08:15:21;10.80;99.90
17252;DHT22;8742;51.716;8.790;2023-04-01T08:18:01;10.80;99.90
17252;DHT22;8742;51.716;8.790;2023-04-01T08:20:36;10.80;99.90
17252;DHT22;8742;51.716;8.790;2023-04-01T08:23:10;10.90;99.90
17252;DHT22;8742;51.716;8.790;2023-04-01T08:25:42;10.90;99.90
17252;DHT22;8742;51.716;8.790;2023-04-01T08:28:17;11.00;99.90
17252;DHT22;8742;51.716;8.790;2023-04-01T08:30:49;11.10;99.90
17252;DHT22;8742;51.716;8.790;2023-04-01T08:33:18;11.10;99.90
17252;DHT22;8742;51.716;8.790;2023-04-01T08:35:49;11.10;99.90
17252;DHT22;8742;51.716;8.790;2023-04-01T08:38:21;11.20;99.90
17252;DHT22;8742;51.716;8.790;2023-04-01T08:41:07;11.20;99.90
17252;DHT22;8742;51.716;8.790;2023-04-01T08:43:55;11.30;99.90
17252;DHT22;8742;51.716;8.790;2023-04-01T08:46:47;11.40;99.90
17252;DHT22;8742;51.716;8.790;2023-04-01T08:49:44;11.50;99.90
17252;DHT22;8742;51.716;8.790;2023-04-01T08:52:25;11.50;99.90
17252;DHT22;8742;51.716;8.790;2023-04-01T08:55:09;11.50;99.90
17252;DHT22;8742;51.716;8.790;2023-04-01T08:57:50;11.40;99.90
17252;DHT22;8742;51.716;8.790;2023-04-01T09:00:25;11.40;99.90
17252;DHT22;8742;51.716;8.790;2023-04-01T09:03:09;11.40;99.90
17252;DHT22;8742;51.716;8.790;2023-04-01T09:05:57;11.40;99.90
17252;DHT22;8742;51.716;8.790;2023-04-01T09:08:38;11.50;99.90
17252;DHT22;8742;51.716;8.790;2023-04-01T09:11:17;11.60;99.90
17252;DHT22;8742;51.716;8.790;2023-04-01T09:14:19;11.80;99.90
17252;DHT22;8742;51.716;8.790;2023-04-01T09:20:02;12.30;99.90
17252;DHT22;8742;51.716;8.790;2023-04-01T09:22:42;12.40;99.90
17252;DHT22;8742;51.716;8.790;2023-04-01T09:25:23;12.60;99.90
17252;DHT22;8742;51.716;8.790;2023-04-01T09:27:57;12.70;99.90
17252;DHT22;8742;51.716;8.790;2023-04-01T09:34:00;12.90;99.90
17252;DHT22;8742;51.716;8.790;2023-04-01T09:36:43;13.10;99.90
17252;DHT22;8742;51.716;8.790;2023-04-01T09:42:41;13.00;99.90
17252;DHT22;8742;51.716;8.790;2023-04-01T09:45:17;12.70;99.90
17252;DHT22;8742;51.716;8.790;2023-04-01T09:48:02;12.60;99.90
17252;DHT22;8742;51.716;8.790;2023-04-01T09:50:35;12.50;99.90
17252;DHT22;8742;51.716;8.790;2023-04-01T09:53:18;12.50;99.90
17252;DHT22;8742;51.716;8.790;2023-04-01T09:56:19;12.50;99.90
17252;DHT22;8742;51.716;8.790;2023-04-01T10:08:32;12.80;99.90
17252;DHT22;8742;51.716;8.790;2023-04-01T10:11:22;12.70;99.90
17252;DHT22;8742;51.716;8.790;2023-04-01T10:20:21;12.50;99.90
17252;DHT22;8742;51.716;8.790;2023-04-01T10:23:05;12.40;99.90
17252;DHT22;8742;51.716;8.790;2023-04-01T10:26:02;12.30;99.90
17252;DHT22;8742;51.716;8.790;2023-04-01T10:29:00;12.40;99.90
17252;DHT22;8742;51.716;8.790;2023-04-01T10:31:53;12.40;99.90
17252;DHT22;8742;51.716;8.790;2023-04-01T10:34:44;12.30;99.90
17252;DHT22;8742;51.716;8.790;2023-04-01T10:37:30;12.30;99.90
17252;DHT22;8742;51.716;8.790;2023-04-01T10:40:25;12.30;99.90
17252;DHT22;8742;51.716;8.790;2023-04-01T10:46:35;12.60;99.90
17252;DHT22;8742;51.716;8.790;2023-04-01T10:49:34;12.80;99.90
17252;DHT22;8742;51.716;8.790;2023-04-01T10:55:25;13.00;99.90
17252;DHT22;8742;51.716;8.790;2023-04-01T11:04:18;13.00;99.90
17252;DHT22;8742;51.716;8.790;2023-04-01T11:07:21;13.00;99.90
17252;DHT22;8742;51.716;8.790;2023-04-01T11:10:26;13.00;99.90
17252;DHT22;8742;51.716;8.790;2023-04-01T11:16:23;12.80;99.90
17252;DHT22;8742;51.716;8.790;2023-04-01T11:22:19;12.60;99.90
17252;DHT22;8742;51.716;8.790;2023-04-01T11:30:49;12.20;99.90
17252;DHT22;8742;51.716;8.790;2023-04-01T11:33:23;12.20;99.90
17252;DHT22;8742;51.716;8.790;2023-04-01T11:36:10;12.20;99.90
17252;DHT22;8742;51.716;8.790;2023-04-01T11:39:05;12.20;99.90
17252;DHT22;8742;51.716;8.790;2023-04-01T11:41:40;12.30;99.90
17252;DHT22;8742;51.716;8.790;2023-04-01T11:44:19;12.40;99.90
17252;DHT22;8742;51.716;8.790;2023-04-01T11:47:02;12.50;99.90
17252;DHT22;8742;51.716;8.790;2023-04-01T11:49:41;12.50;99.90
17252;DHT22;8742;51.716;8.790;2023-04-01T11:52:25;12.60;99.90
17252;DHT22;8742;51.716;8.790;2023-04-01T11:55:06;12.60;99.90
17252;DHT22;8742;51.716;8.790;2023-04-01T11:57:48;12.70;99.90
17252;DHT22;8742;51.716;8.790;2023-04-01T12:03:28;12.80;99.90
17252;DHT22;8742;51.716;8.790;2023-04-01T12:06:05;12.90;99.90
17252;DHT22;8742;51.716;8.790;2023-04-01T12:08:44;13.00;99.90
17252;DHT22;8742;51.716;8.790;2023-04-01T12:11:22;13.20;99.90
17252;DHT22;8742;51.716;8.790;2023-04-01T12:13:55;13.30;99.90
17252;DHT22;8742;51.716;8.790;2023-04-01T12:19:20;13.40;99.90
17252;DHT22;8742;51.716;8.790;2023-04-01T12:22:00;13.40;99.90
17252;DHT22;8742;51.716;8.790;2023-04-01T12:24:45;13.50;99.90
17252;DHT22;8742;51.716;8.790;2023-04-01T12:27:23;13.50;99.90
17252;DHT22;8742;51.716;8.790;2023-04-01T12:30:14;13.40;99.90
17252;DHT22;8742;51.716;8.790;2023-04-01T12:32:46;13.20;99.90
17252;DHT22;8742;51.716;8.790;2023-04-01T12:35:21;13.10;99.90
17252;DHT22;8742;51.716;8.790;2023-04-01T12:38:08;12.90;99.90
17252;DHT22;8742;51.716;8.790;2023-04-01T12:40:56;12.70;99.90
17252;DHT22;8742;51.716;8.790;2023-04-01T12:43:44;12.50;99.90
17252;DHT22;8742;51.716;8.790;2023-04-01T12:46:18;12.30;99.90
17252;DHT22;8742;51.716;8.790;2023-04-01T12:49:12;12.10;99.90
17252;DHT22;8742;51.716;8.790;2023-04-01T12:52:04;12.00;99.90
17252;DHT22;8742;51.716;8.790;2023-04-01T13:00:43;11.90;99.90
17252;DHT22;8742;51.716;8.790;2023-04-01T13:03:32;11.90;99.90
17252;DHT22;8742;51.716;8.790;2023-04-01T13:06:26;11.90;99.90
17252;DHT22;8742;51.716;8.790;2023-04-01T13:09:00;12.00;99.90
17252;DHT22;8742;51.716;8.790;2023-04-01T13:11:38;12.10;99.90
17252;DHT22;8742;51.716;8.790;2023-04-01T13:14:28;12.20;99.90
17252;DHT22;8742;51.716;8.790;2023-04-01T13:17:08;12.40;99.90
17252;DHT22;8742;51.716;8.790;2023-04-01T13:19:43;12.60;99.90
17252;DHT22;8742;51.716;8.790;2023-04-01T13:22:16;12.80;99.90
17252;DHT22;8742;51.716;8.790;2023-04-01T13:24:51;12.90;99.90
17252;DHT22;8742;51.716;8.790;2023-04-01T13:27:25;13.00;99.90
17252;DHT22;8742;51.716;8.790;2023-04-01T13:30:07;13.00;99.90
17252;DHT22;8742;51.716;8.790;2023-04-01T13:32:40;13.00;99.90
17252;DHT22;8742;51.716;8.790;2023-04-01T13:35:26;13.00;99.90
17252;DHT22;8742;51.716;8.790;2023-04-01T13:38:18;13.10;99.90
17252;DHT22;8742;51.716;8.790;2023-04-01T13:40:54;13.20;99.90
17252;DHT22;8742;51.716;8.790;2023-04-01T13:43:28;13.10;99.90
17252;DHT22;8742;51.716;8.790;2023-04-01T13:46:17;13.00;99.90
17252;DHT22;8742;51.716;8.790;2023-04-01T13:49:05;12.90;99.90
17252;DHT22;8742;51.716;8.790;2023-04-01T13:51:54;12.80;99.90
17252;DHT22;8742;51.716;8.790;2023-04-01T13:54:46;12.80;99.90
17252;DHT22;8742;51.716;8.790;2023-04-01T13:57:31;12.90;99.90
17252;DHT22;8742;51.716;8.790;2023-04-01T14:00:25;13.10;99.90
17252;DHT22;8742;51.716;8.790;2023-04-01T14:06:11;13.20;99.90
17252;DHT22;8742;51.716;8.790;2023-04-01T14:08:52;13.30;99.90
17252;DHT22;8742;51.716;8.790;2023-04-01T14:11:25;13.50;99.90
17252;DHT22;8742;51.716;8.790;2023-04-01T14:14:01;13.60;99.90
17252;DHT22;8742;51.716;8.790;2023-04-01T14:16:58;13.70;99.90
17252;DHT22;8742;51.716;8.790;2023-04-01T14:19:45;13.70;99.90
17252;DHT22;8742;51.716;8.790;2023-04-01T14:22:22;13.70;99.90
17252;DHT22;8742;51.716;8.790;2023-04-01T14:25:07;13.70;99.90
17252;DHT22;8742;51.716;8.790;2023-04-01T14:27:54;13.70;99.90
17252;DHT22;8742;51.716;8.790;2023-04-01T14:30:34;13.60;99.90
17252;DHT22;8742;51.716;8.790;2023-04-01T14:33:11;13.50;99.90
17252;DHT22;8742;51.716;8.790;2023-04-01T14:35:44;13.40;99.90
17252;DHT22;8742;51.716;8.790;2023-04-01T14:38:45;13.30;99.90
17252;DHT22;8742;51.716;8.790;2023-04-01T14:41:20;13.30;99.90
17252;DHT22;8742;51.716;8.790;2023-04-01T14:43:58;13.10;99.90
17252;DHT22;8742;51.716;8.790;2023-04-01T14:47:02;13.00;99.90
17252;DHT22;8742;51.716;8.790;2023-04-01T14:49:33;12.80;99.90
17252;DHT22;8742;51.716;8.790;2023-04-01T14:52:10;12.60;99.90
17252;DHT22;8742;51.716;8.790;2023-04-01T14:54:42;12.50;99.90
17252;DHT22;8742;51.716;8.790;2023-04-01T14:57:11;12.40;99.90
17252;DHT22;8742;51.716;8.790;2023-04-01T14:59:47;12.20;99.90
17252;DHT22;8742;51.716;8.790;2023-04-01T15:02:37;12.10;99.90
17252;DHT22;8742;51.716;8.790;2023-04-01T15:05:16;12.00;99.90
17252;DHT22;8742;51.716;8.790;2023-04-01T15:08:01;11.90;99.90
17252;DHT22;8742;51.716;8.790;2023-04-01T15:13:52;11.80;99.90
17252;DHT22;8742;51.716;8.790;2023-04-01T15:16:27;11.70;99.90
17252;DHT22;8742;51.716;8.790;2023-04-01T15:19:08;11.70;99.90
17252;DHT22;8742;51.716;8.790;2023-04-01T15:21:48;11.70;99.90
17252;DHT22;8742;51.716;8.790;2023-04-01T15:24:21;11.70;99.90
17252;DHT22;8742;51.716;8.790;2023-04-01T15:30:13;11.80;99.90
17252;DHT22;8742;51.716;8.790;2023-04-01T15:32:50;11.80;99.90
17252;DHT22;8742;51.716;8.790;2023-04-01T15:35:27;11.80;99.90
17252;DHT22;8742;51.716;8.790;2023-04-01T15:38:06;11.90;99.90
17252;DHT22;8742;51.716;8.790;2023-04-01T15:40:42;11.90;99.90
17252;DHT22;8742;51.716;8.790;2023-04-01T15:43:24;11.90;99.90
17252;DHT22;8742;51.716;8.790;2023-04-01T15:46:12;12.00;99.90
17252;DHT22;8742;51.716;8.790;2023-04-01T15:48:55;12.00;99.90
17252;DHT22;8742;51.716;8.790;2023-04-01T15:51:41;12.00;99.90
17252;DHT22;8742;51.716;8.790;2023-04-01T15:54:46;12.00;99.90
17252;DHT22;8742;51.716;8.790;2023-04-01T15:57:25;12.00;99.90
17252;DHT22;8742;51.716;8.790;2023-04-01T16:00:22;11.90;99.90
17252;DHT22;8742;51.716;8.790;2023-04-01T16:03:03;11.90;99.90
17252;DHT22;8742;51.716;8.790;2023-04-01T16:05:44;11.80;99.90
17252;DHT22;8742;51.716;8.790;2023-04-01T16:11:25;11.60;99.90
17252;DHT22;8742;51.716;8.790;2023-04-01T16:14:06;11.50;99.90
17252;DHT22;8742;51.716;8.790;2023-04-01T16:16:46;11.50;99.90
17252;DHT22;8742;51.716;8.790;2023-04-01T16:19:33;11.30;99.90
17252;DHT22;8742;51.716;8.790;2023-04-01T16:22:07;11.20;99.90
17252;DHT22;8742;51.716;8.790;2023-04-01T16:24:39;11.20;99.90
17252;DHT22;8742;51.716;8.790;2023-04-01T16:27:12;11.10;99.90
17252;DHT22;8742;51.716;8.790;2023-04-01T16:29:46;11.10;99.90
17252;DHT22;8742;51.716;8.790;2023-04-01T16:32:21;11.10;99.90
17252;DHT22;8742;51.716;8.790;2023-04-01T16:35:00;11.10;99.90
17252;DHT22;8742;51.716;8.790;2023-04-01T16:37:36;11.10;99.90
17252;DHT22;8742;51.716;8.790;2023-04-01T16:40:13;11.00;99.90
17252;DHT22;8742;51.716;8.790;2023-04-01T16:42:46;11.00;99.90
17252;DHT22;8742;51.716;8.790;2023-04-01T16:45:23;11.00;99.90
17252;DHT22;8742;51.716;8.790;2023-04-01T16:47:56;11.00;99.90
17252;DHT22;8742;51.716;8.790;2023-04-01T16:50:25;11.00;99.90
17252;DHT22;8742;51.716;8.790;2023-04-01T16:53:01;11.00;99.90
17252;DHT22;8742;51.716;8.790;2023-04-01T16:55:43;11.00;99.90
17252;DHT22;8742;51.716;8.790;2023-04-01T16:58:20;11.00;99.90
17252;DHT22;8742;51.716;8.790;2023-04-01T17:00:53;11.00;99.90
17252;DHT22;8742;51.716;8.790;2023-04-01T17:03:27;11.00;99.90
17252;DHT22;8742;51.716;8.790;2023-04-01T17:06:16;10.90;99.90
17252;DHT22;8742;51.716;8.790;2023-04-01T17:09:00;10.90;99.90
17252;DHT22;8742;51.716;8.790;2023-04-01T17:11:31;10.90;99.90
17252;DHT22;8742;51.716;8.790;2023-04-01T17:14:11;10.90;99.90
17252;DHT22;8742;51.716;8.790;2023-04-01T17:16:53;10.90;99.90
17252;DHT22;8742;51.716;8.790;2023-04-01T17:19:42;10.90;99.90
17252;DHT22;8742;51.716;8.790;2023-04-01T17:22:29;10.90;99.90
17252;DHT22;8742;51.716;8.790;2023-04-01T17:25:09;10.90;99.90
17252;DHT22;8742;51.716;8.790;2023-04-01T17:27:47;10.90;99.90
17252;DHT22;8742;51.716;8.790;2023-04-01T17:30:24;10.90;99.90
17252;DHT22;8742;51.716;8.790;2023-04-01T17:33:10;10.90;99.90
17252;DHT22;8742;51.716;8.790;2023-04-01T17:35:48;10.80;99.90
17252;DHT22;8742;51.716;8.790;2023-04-01T17:38:22;10.80;99.90
17252;DHT22;8742;51.716;8.790;2023-04-01T17:40:59;10.80;99.90
17252;DHT22;8742;51.716;8.790;2023-04-01T17:43:37;10.80;99.90
17252;DHT22;8742;51.716;8.790;2023-04-01T17:46:20;10.70;99.90
17252;DHT22;8742;51.716;8.790;2023-04-01T17:48:53;10.70;99.90
17252;DHT22;8742;51.716;8.790;2023-04-01T17:51:30;10.70;99.90
17252;DHT22;8742;51.716;8.790;2023-04-01T17:54:10;10.70;99.90
17252;DHT22;8742;51.716;8.790;2023-04-01T17:56:52;10.70;99.90
17252;DHT22;8742;51.716;8.790;2023-04-01T17:59:26;10.60;99.90
17252;DHT22;8742;51.716;8.790;2023-04-01T18:02:03;10.60;99.90
17252;DHT22;8742;51.716;8.790;2023-04-01T18:05:01;10.60;99.90
17252;DHT22;8742;51.716;8.790;2023-04-01T18:07:40;10.50;99.90
17252;DHT22;8742;51.716;8.790;2023-04-01T18:10:25;10.50;99.90